createdAt,value
2022-11-28T00:00:09.590Z,3.2
2022-11-28T00:02:11.289Z,3.23
2022-11-28T00:04:12.575Z,3.21
2022-11-28T00:06:14.279Z,3.24
2022-11-28T00:08:15.911Z,3.25
2022-11-28T00:10:17.432Z,3.18
2022-11-28T00:12:19.405Z,3.06
2022-11-28T00:14:20.656Z,3.04
2022-11-28T00:16:22.147Z,3
2022-11-28T00:18:23.287Z,3.02
2022-11-28T00:20:25.124Z,3.02
2022-11-28T00:22:26.916Z,2.97
2022-11-28T00:24:28.113Z,2.96
2022-11-28T00:26:29.888Z,2.94
2022-11-28T00:28:31.783Z,2.89
2022-11-28T00:30:33.549Z,2.92
2022-11-28T00:32:35.693Z,2.98
2022-11-28T00:34:37.563Z,3.07
2022-11-28T00:36:38.535Z,3.13
2022-11-28T00:38:40.363Z,3.17
2022-11-28T00:40:41.655Z,3.1
2022-11-28T00:42:42.664Z,3.07
2022-11-28T00:44:44.136Z,3.07
2022-11-28T00:46:45.139Z,3.04
2022-11-28T00:48:46.312Z,3.12
2022-11-28T00:50:47.569Z,3.18
2022-11-28T00:52:49.491Z,3.14
2022-11-28T00:54:50.868Z,3.13
2022-11-28T00:56:52.850Z,3.18
2022-11-28T00:58:54.247Z,3.2
2022-11-28T01:00:55.847Z,3.22
2022-11-28T01:02:57.194Z,3.17
2022-11-28T01:04:59.092Z,3.17
2022-11-28T01:07:00.182Z,3.17
2022-11-28T01:09:01.606Z,3.18
2022-11-28T01:11:02.726Z,3.17
2022-11-28T01:13:03.709Z,3.14
2022-11-28T01:15:05.199Z,3.19
2022-11-28T01:17:07.120Z,3.15
2022-11-28T01:19:08.637Z,3.11
2022-11-28T01:21:09.868Z,3.06
2022-11-28T01:23:11.654Z,3.04
2022-11-28T01:25:13.385Z,2.99
2022-11-28T01:27:15.039Z,3.04
2022-11-28T01:29:16.596Z,3.04
2022-11-28T01:31:17.802Z,3
2022-11-28T01:33:18.772Z,2.92
2022-11-28T01:35:20.246Z,2.92
2022-11-28T01:37:21.591Z,2.92
2022-11-28T01:39:23.015Z,2.9
2022-11-28T01:41:24.529Z,2.83
2022-11-28T01:43:25.779Z,2.8
2022-11-28T01:45:27.660Z,2.78
2022-11-28T01:47:28.681Z,2.73
2022-11-28T01:49:30.330Z,2.72
2022-11-28T01:51:31.472Z,2.66
2022-11-28T01:53:33.467Z,2.62
2022-11-28T01:55:35.164Z,2.63
2022-11-28T01:57:37.062Z,2.68
2022-11-28T01:59:38.649Z,2.91
2022-11-28T02:01:40.286Z,3.03
2022-11-28T02:03:42.014Z,3.06
2022-11-28T02:05:43.566Z,3.1
2022-11-28T02:07:44.681Z,3.2
2022-11-28T02:09:46.307Z,3.16
2022-11-28T02:11:48.168Z,3.16
2022-11-28T02:13:50.121Z,3.19
2022-11-28T02:15:51.268Z,3.14
2022-11-28T02:17:52.851Z,3.13
2022-11-28T02:19:53.889Z,3.11
2022-11-28T02:21:55.667Z,3.14
2022-11-28T02:23:57.036Z,3.19
2022-11-28T02:25:58.256Z,3.15
2022-11-28T02:28:00.237Z,3.13
2022-11-28T02:30:01.303Z,3.11
2022-11-28T02:32:03.106Z,3.04
2022-11-28T02:34:04.371Z,3.04
2022-11-28T02:36:05.872Z,3.08
2022-11-28T02:38:07.328Z,3.05
2022-11-28T02:40:08.400Z,3.06
2022-11-28T02:42:09.914Z,3.07
2022-11-28T02:44:11.539Z,3.04
2022-11-28T02:46:12.736Z,3.02
2022-11-28T02:48:14.395Z,3.03
2022-11-28T02:50:16.159Z,2.96
2022-11-28T02:52:17.675Z,3.05
2022-11-28T02:54:19.017Z,3.03
2022-11-28T02:56:20.875Z,3.02
2022-11-28T02:58:22.630Z,3.05
2022-11-28T03:02:25.229Z,2.99
2022-11-28T03:04:26.992Z,3.02
2022-11-28T03:06:28.587Z,3.1
2022-11-28T03:08:30.415Z,3.09
2022-11-28T03:10:31.469Z,3.01
2022-11-28T03:12:33.192Z,2.91
2022-11-28T03:14:34.743Z,2.92
2022-11-28T03:16:36.520Z,2.91
2022-11-28T03:18:37.976Z,2.92
2022-11-28T03:20:39.330Z,2.93
2022-11-28T03:22:40.948Z,2.98
2022-11-28T03:24:43.011Z,3.02
2022-11-28T03:26:43.966Z,3.06
2022-11-28T03:28:45.013Z,3.06
2022-11-28T03:30:46.311Z,3.05
2022-11-28T03:32:47.926Z,3.1
2022-11-28T03:34:49.246Z,3.09
2022-11-28T03:36:51.147Z,3.11
2022-11-28T03:38:52.582Z,3.15
2022-11-28T03:40:54.335Z,3.12
2022-11-28T03:42:56.254Z,3.13
2022-11-28T03:44:57.935Z,3.18
2022-11-28T03:46:59.237Z,3.14
2022-11-28T03:49:00.772Z,3.18
2022-11-28T03:51:02.265Z,3.19
2022-11-28T03:53:03.523Z,3.17
2022-11-28T03:55:04.613Z,3.2
2022-11-28T03:57:06.532Z,3.16
2022-11-28T03:59:08.501Z,3.13
2022-11-28T04:01:10.368Z,3.14
2022-11-28T04:03:11.434Z,3.19
2022-11-28T04:05:12.827Z,3.23
2022-11-28T04:07:14.296Z,3.18
2022-11-28T04:09:15.990Z,3.19
2022-11-28T04:11:17.627Z,3.17
2022-11-28T04:13:19.099Z,3.17
2022-11-28T04:15:20.427Z,3.09
2022-11-28T04:17:22.108Z,3.1
2022-11-28T04:19:23.644Z,3.07
2022-11-28T04:21:25.436Z,3.03
2022-11-28T04:23:26.742Z,2.96
2022-11-28T04:25:28.509Z,2.92
2022-11-28T04:27:30.501Z,2.83
2022-11-28T04:29:32.369Z,2.83
2022-11-28T04:31:33.785Z,2.8
2022-11-28T04:33:34.970Z,2.78
2022-11-28T04:35:36.966Z,2.76
2022-11-28T04:37:38.419Z,2.77
2022-11-28T04:39:39.958Z,2.77
2022-11-28T04:41:41.493Z,2.74
2022-11-28T04:43:43.479Z,2.67
2022-11-28T04:45:45.252Z,2.57
2022-11-28T04:47:46.442Z,2.56
2022-11-28T04:49:47.673Z,2.59
2022-11-28T04:51:49.233Z,2.61
2022-11-28T04:53:50.462Z,2.61
2022-11-28T04:55:52.105Z,2.61
2022-11-28T04:57:57.228Z,2.59
2022-11-28T04:59:54.895Z,2.57
2022-11-28T05:01:56.930Z,2.54
2022-11-28T05:03:58.245Z,2.69
2022-11-28T05:05:59.296Z,2.78
2022-11-28T05:08:00.491Z,2.81
2022-11-28T05:10:01.967Z,2.79
2022-11-28T05:12:03.141Z,2.72
2022-11-28T05:14:04.945Z,2.64
2022-11-28T05:16:06.350Z,2.58
2022-11-28T05:18:08.160Z,2.54
2022-11-28T05:20:09.734Z,2.54
2022-11-28T05:22:10.967Z,2.51
2022-11-28T05:24:12.211Z,2.49
2022-11-28T05:26:13.506Z,2.47
2022-11-28T05:28:15.389Z,2.43
2022-11-28T05:30:17.027Z,2.43
2022-11-28T05:32:18.247Z,2.46
2022-11-28T05:34:19.880Z,2.52
2022-11-28T05:36:21.904Z,2.44
2022-11-28T05:38:23.689Z,2.44
2022-11-28T05:40:25.095Z,2.35
2022-11-28T05:42:26.551Z,2.39
2022-11-28T05:44:28.145Z,2.32
2022-11-28T05:46:30.097Z,2.32
2022-11-28T05:48:31.199Z,2.34
2022-11-28T05:50:37.067Z,2.32
2022-11-28T05:52:34.494Z,2.31
2022-11-28T05:54:35.912Z,2.25
2022-11-28T05:56:39.499Z,2.21
2022-11-28T05:58:38.126Z,2.18
2022-11-28T06:00:39.289Z,2.19
2022-11-28T06:02:40.434Z,2.16
2022-11-28T06:04:42.473Z,2.19
2022-11-28T06:06:43.723Z,2.16
2022-11-28T06:08:52.932Z,2.14
2022-11-28T06:10:46.848Z,2.16
2022-11-28T06:12:48.428Z,2.12
2022-11-28T06:14:50.050Z,2.1
2022-11-28T06:16:51.857Z,2.05
2022-11-28T06:18:53.201Z,2.07
2022-11-28T06:20:54.716Z,2.09
2022-11-28T06:22:56.346Z,2.09
2022-11-28T06:24:58.068Z,2.12
2022-11-28T06:26:59.561Z,2.11
2022-11-28T06:29:01.229Z,2.12
2022-11-28T06:29:45.177Z,2.12
2022-11-28T06:31:46.690Z,2.11
2022-11-28T06:35:48.922Z,2.05
2022-11-28T06:37:50.096Z,2.09
2022-11-28T06:39:51.448Z,2.13
2022-11-28T06:41:53.173Z,2.09
2022-11-28T06:43:54.512Z,2.09
2022-11-28T06:45:56.492Z,2.08
2022-11-28T06:47:57.945Z,2.02
2022-11-28T06:49:59.211Z,2.01
2022-11-28T06:52:00.959Z,1.98
2022-11-28T06:54:02.701Z,2.04
2022-11-28T06:56:04.417Z,2.02
2022-11-28T06:58:05.737Z,2.04
2022-11-28T07:00:07.111Z,2.06
2022-11-28T07:02:09.220Z,2.02
2022-11-28T07:04:10.480Z,2.02
2022-11-28T07:06:12.211Z,2.01
2022-11-28T07:08:13.720Z,2
2022-11-28T07:10:15.018Z,2
2022-11-28T07:12:16.701Z,2.01
2022-11-28T07:14:17.909Z,2.01
2022-11-28T07:16:19.128Z,2.02
2022-11-28T07:18:20.199Z,2.04
2022-11-28T07:20:21.226Z,2.04
2022-11-28T07:22:23.203Z,2.01
2022-11-28T07:24:24.416Z,1.98
2022-11-28T07:26:26.011Z,2.01
2022-11-28T07:28:27.355Z,2.01
2022-11-28T07:30:29.272Z,2.02
2022-11-28T07:34:32.736Z,2.07
2022-11-28T07:36:34.449Z,2.13
2022-11-28T07:38:36.230Z,2.12
2022-11-28T07:40:37.629Z,2.08
2022-11-28T07:42:38.695Z,2.13
2022-11-28T07:44:39.803Z,2.1
2022-11-28T07:46:41.825Z,2.1
2022-11-28T07:48:43.261Z,2.16
2022-11-28T07:50:44.560Z,2.18
2022-11-28T07:52:46.365Z,2.19
2022-11-28T07:54:47.396Z,2.21
2022-11-28T07:58:50.437Z,2.24
2022-11-28T08:00:52.016Z,2.23
2022-11-28T08:02:53.468Z,2.17
2022-11-28T08:04:55.430Z,2.15
2022-11-28T08:06:55.873Z,2.16
2022-11-28T08:08:57.080Z,2.15
2022-11-28T08:10:58.324Z,2.17
2022-11-28T08:12:59.530Z,2.15
2022-11-28T08:15:01.058Z,2.21
2022-11-28T08:17:02.892Z,2.25
2022-11-28T08:19:03.921Z,2.26
2022-11-28T08:21:05.178Z,2.3
2022-11-28T08:23:06.905Z,2.3
2022-11-28T08:25:08.037Z,2.3
2022-11-28T08:27:09.917Z,2.33
2022-11-28T08:29:11.582Z,2.39
2022-11-28T08:31:13.245Z,2.41
2022-11-28T08:33:14.927Z,2.45
2022-11-28T08:35:16.186Z,2.5
2022-11-28T08:37:17.795Z,2.55
2022-11-28T08:39:24.254Z,2.61
2022-11-28T08:41:20.859Z,2.63
2022-11-28T08:43:22.811Z,2.67
2022-11-28T08:45:24.768Z,2.67
2022-11-28T08:47:26.020Z,2.69
2022-11-28T08:49:27.468Z,2.75
2022-11-28T08:51:28.587Z,2.79
2022-11-28T08:53:29.672Z,2.84
2022-11-28T08:55:32.429Z,2.87
2022-11-28T08:57:32.760Z,2.94
2022-11-28T08:59:34.363Z,2.87
2022-11-28T09:01:35.877Z,2.94
2022-11-28T09:03:37.118Z,3.07
2022-11-28T09:05:38.444Z,3.11
2022-11-28T09:07:40.262Z,3.1
2022-11-28T09:09:42.138Z,3.04
2022-11-28T09:11:43.605Z,3.06
2022-11-28T09:13:44.730Z,3.06
2022-11-28T09:15:48.114Z,3.04
2022-11-28T09:17:47.100Z,3.08
2022-11-28T09:19:48.825Z,3.18
2022-11-28T09:21:54.665Z,3.18
2022-11-28T09:23:52.279Z,3.21
2022-11-28T09:25:54.009Z,3.28
2022-11-28T09:27:55.081Z,3.27
2022-11-28T09:29:56.696Z,3.35
2022-11-28T09:31:57.812Z,3.45
2022-11-28T09:33:58.773Z,3.51
2022-11-28T09:35:59.862Z,3.51
2022-11-28T09:38:01.204Z,3.6
2022-11-28T09:42:04.107Z,3.53
2022-11-28T09:44:05.210Z,3.59
2022-11-28T09:46:06.668Z,3.69
2022-11-28T09:48:08.513Z,3.72
2022-11-28T09:50:10.174Z,3.76
2022-11-28T09:52:11.361Z,3.77
2022-11-28T09:54:12.370Z,3.79
2022-11-28T09:56:13.464Z,3.65
2022-11-28T09:58:14.769Z,3.7
2022-11-28T10:00:16.069Z,3.76
2022-11-28T10:02:17.977Z,3.84
2022-11-28T10:04:19.562Z,3.78
2022-11-28T10:06:21.360Z,3.77
2022-11-28T10:08:22.459Z,3.76
2022-11-28T10:10:23.535Z,3.74
2022-11-28T10:12:24.874Z,3.86
2022-11-28T10:14:26.097Z,3.92
2022-11-28T10:16:27.389Z,4.05
2022-11-28T10:18:28.673Z,4.14
2022-11-28T10:20:29.662Z,4.17
2022-11-28T10:22:31.243Z,4.1
2022-11-28T10:24:32.423Z,4.15
2022-11-28T10:26:33.896Z,4.07
2022-11-28T10:28:35.074Z,4.2
2022-11-28T10:30:37.101Z,4.28
2022-11-28T10:32:38.559Z,4.24
2022-11-28T10:34:39.742Z,4.31
2022-11-28T10:36:41.170Z,4.33
2022-11-28T10:38:42.747Z,4.33
2022-11-28T10:40:44.388Z,4.34
2022-11-28T10:42:45.826Z,4.33
2022-11-28T10:44:47.691Z,4.4
2022-11-28T10:46:49.602Z,4.49
2022-11-28T10:48:50.799Z,4.53
2022-11-28T10:50:52.737Z,4.51
2022-11-28T10:52:53.824Z,4.62
2022-11-28T10:54:55.005Z,4.67
2022-11-28T10:56:56.046Z,4.73
2022-11-28T10:58:57.895Z,4.77
2022-11-28T11:00:59.544Z,4.84
2022-11-28T11:03:00.683Z,4.85
2022-11-28T11:05:02.237Z,4.94
2022-11-28T11:07:09.020Z,4.9
2022-11-28T11:09:05.337Z,4.98
2022-11-28T11:11:06.925Z,4.79
2022-11-28T11:13:08.142Z,4.78
2022-11-28T11:15:10.082Z,4.76
2022-11-28T11:17:11.692Z,4.75
2022-11-28T11:19:13.299Z,4.79
2022-11-28T11:21:14.301Z,4.71
2022-11-28T11:23:16.236Z,4.78
2022-11-28T11:25:17.974Z,4.67
2022-11-28T11:27:19.329Z,4.69
2022-11-28T11:29:20.920Z,4.55
2022-11-28T11:31:21.985Z,4.63
2022-11-28T11:33:23.822Z,4.65
2022-11-28T11:35:25.603Z,4.75
2022-11-28T11:37:27.397Z,4.68
2022-11-28T11:39:28.496Z,4.7
2022-11-28T11:41:30.315Z,4.76
2022-11-28T11:43:32.224Z,4.83
2022-11-28T11:45:34.113Z,4.87
2022-11-28T11:47:35.712Z,4.93
2022-11-28T11:49:37.240Z,5
2022-11-28T11:51:39.570Z,4.99
2022-11-28T11:53:39.828Z,5.06
2022-11-28T11:55:40.838Z,5.18
2022-11-28T11:57:42.602Z,5.27
2022-11-28T11:59:44.693Z,5.33
2022-11-28T12:01:45.725Z,5.26
2022-11-28T12:03:47.162Z,5.36
2022-11-28T12:06:12.526Z,5.46
2022-11-28T12:07:50.051Z,5.52
2022-11-28T12:09:53.524Z,5.35
2022-11-28T12:11:53.032Z,5.38
2022-11-28T12:13:54.725Z,5.5
2022-11-28T12:15:56.555Z,5.6
2022-11-28T12:19:59.848Z,5.51
2022-11-28T12:22:01.424Z,5.5
2022-11-28T12:24:03.446Z,5.37
2022-11-28T12:26:04.479Z,5.29
2022-11-28T12:28:06.083Z,5.29
2022-11-28T12:30:07.737Z,5.39
2022-11-28T12:32:09.661Z,5.42
2022-11-28T12:34:10.849Z,5.36
2022-11-28T12:36:12.235Z,5.46
2022-11-28T12:38:14.141Z,5.45
2022-11-28T12:40:15.255Z,5.48
2022-11-28T12:42:16.599Z,5.56
2022-11-28T12:44:17.853Z,5.68
2022-11-28T12:46:18.971Z,5.74
2022-11-28T12:48:20.623Z,5.81
2022-11-28T12:50:22.112Z,5.77
2022-11-28T12:52:23.288Z,5.67
2022-11-28T12:54:25.053Z,5.66
2022-11-28T12:56:26.560Z,5.74
2022-11-28T12:58:28.077Z,5.81
2022-11-28T13:00:29.710Z,5.9
2022-11-28T13:02:31.027Z,5.99
2022-11-28T13:04:32.497Z,5.9
2022-11-28T13:06:33.495Z,5.9
2022-11-28T13:08:35.270Z,5.85
2022-11-28T13:10:36.461Z,5.87
2022-11-28T13:12:37.951Z,5.89
2022-11-28T13:14:39.758Z,5.89
2022-11-28T13:15:23.568Z,5.94
2022-11-28T13:17:25.492Z,5.91
2022-11-28T13:19:26.713Z,5.82
2022-11-28T13:21:28.450Z,5.71
2022-11-28T13:23:30.181Z,5.75
2022-11-28T13:25:31.743Z,5.81
2022-11-28T13:27:33.193Z,5.87
2022-11-28T13:29:34.455Z,5.95
2022-11-28T13:31:36.338Z,5.97
2022-11-28T13:33:37.388Z,6.01
2022-11-28T13:35:38.524Z,6.01
2022-11-28T13:39:41.930Z,5.92
2022-11-28T13:42:09.962Z,5.98
2022-11-28T13:43:46.374Z,6
2022-11-28T13:45:46.045Z,5.97
2022-11-28T13:47:47.507Z,5.97
2022-11-28T13:49:48.815Z,5.9
2022-11-28T13:51:50.417Z,5.85
2022-11-28T13:53:51.517Z,5.86
2022-11-28T13:55:53.438Z,5.8
2022-11-28T13:57:54.398Z,5.75
2022-11-28T13:59:55.666Z,5.73
2022-11-28T14:01:57.630Z,5.74
2022-11-28T14:03:58.610Z,5.74
2022-11-28T14:06:00.534Z,5.74
2022-11-28T14:08:01.760Z,5.65
2022-11-28T14:10:03.082Z,5.68
2022-11-28T14:12:04.645Z,5.7
2022-11-28T14:14:06.575Z,5.69
2022-11-28T14:16:08.341Z,5.72
2022-11-28T14:18:25.037Z,5.72
2022-11-28T14:20:11.327Z,5.71
2022-11-28T14:22:12.372Z,5.73
2022-11-28T14:24:13.541Z,5.75
2022-11-28T14:26:14.604Z,5.76
2022-11-28T14:28:15.639Z,5.74
2022-11-28T14:30:16.642Z,5.74
2022-11-28T14:32:29.974Z,5.69
2022-11-28T14:34:19.541Z,5.65
2022-11-28T14:36:20.634Z,5.71
2022-11-28T14:38:21.632Z,5.69
2022-11-28T14:40:22.754Z,5.69
2022-11-28T14:42:44.361Z,5.7
2022-11-28T14:44:24.963Z,5.68
2022-11-28T14:46:26.088Z,5.69
2022-11-28T14:48:27.932Z,5.68
2022-11-28T14:50:28.859Z,5.66
2022-11-28T14:52:38.781Z,5.68
2022-11-28T14:54:31.773Z,5.66
2022-11-28T14:56:33.253Z,5.65
2022-11-28T14:58:34.862Z,5.59
2022-11-28T15:00:36.087Z,5.56
2022-11-28T15:02:37.739Z,5.53
2022-11-28T15:06:40.890Z,5.56
2022-11-28T15:08:42.075Z,5.5
2022-11-28T15:10:43.539Z,5.48
2022-11-28T15:12:45.131Z,5.44
2022-11-28T15:14:46.571Z,5.46
2022-11-28T15:16:50.379Z,5.46
2022-11-28T15:18:48.708Z,5.45
2022-11-28T15:20:50.591Z,5.46
2022-11-28T15:22:51.867Z,5.45
2022-11-28T15:24:53.602Z,5.4
2022-11-28T15:26:57.508Z,5.39
2022-11-28T15:28:57.107Z,5.42
2022-11-28T15:30:58.303Z,5.37
2022-11-28T15:32:59.552Z,5.38
2022-11-28T15:35:01.445Z,5.37
2022-11-28T15:37:03.408Z,5.36
2022-11-28T15:39:05.126Z,5.37
2022-11-28T15:41:07.087Z,5.34
2022-11-28T15:43:12.825Z,5.35
2022-11-28T15:45:10.356Z,5.34
2022-11-28T15:49:12.733Z,5.39
2022-11-28T15:51:13.992Z,5.39
2022-11-28T15:53:15.703Z,5.37
2022-11-28T15:55:16.916Z,5.36
2022-11-28T15:57:18.054Z,5.36
2022-11-28T15:59:19.696Z,5.41
2022-11-28T16:01:20.995Z,5.33
2022-11-28T16:03:22.205Z,5.33
2022-11-28T16:05:23.198Z,5.34
2022-11-28T16:07:24.688Z,5.32
2022-11-28T16:09:26.023Z,5.33
2022-11-28T16:11:27.752Z,5.33
2022-11-28T16:13:29.318Z,5.34
2022-11-28T16:15:31.118Z,5.36
2022-11-28T16:17:32.217Z,5.35
2022-11-28T16:19:34.039Z,5.34
2022-11-28T16:21:35.818Z,5.31
2022-11-28T16:23:37.052Z,5.31
2022-11-28T16:25:38.434Z,5.29
2022-11-28T16:27:39.643Z,5.27
2022-11-28T16:29:41.389Z,5.29
2022-11-28T16:31:42.326Z,5.33
2022-11-28T16:33:43.512Z,5.3
2022-11-28T16:35:44.756Z,5.28
2022-11-28T16:37:45.820Z,5.28
2022-11-28T16:39:47.164Z,5.26
2022-11-28T16:41:48.555Z,5.24
2022-11-28T16:43:50.446Z,5.28
2022-11-28T16:45:51.990Z,5.26
2022-11-28T16:47:53.216Z,5.25
2022-11-28T16:49:54.392Z,5.24
2022-11-28T16:51:56.146Z,5.23
2022-11-28T16:53:58.037Z,5.23
2022-11-28T16:56:00.047Z,5.24
2022-11-28T16:58:01.504Z,5.25
2022-11-28T17:00:02.800Z,5.28
2022-11-28T17:02:03.985Z,5.31
2022-11-28T17:04:05.709Z,5.3
2022-11-28T17:06:06.936Z,5.26
2022-11-28T17:08:08.759Z,5.28
2022-11-28T17:10:09.756Z,5.27
2022-11-28T17:12:10.904Z,5.26
2022-11-28T17:14:13.801Z,5.27
2022-11-28T17:16:14.465Z,5.25
2022-11-28T17:18:15.501Z,5.26
2022-11-28T17:20:17.181Z,5.28
2022-11-28T17:22:18.803Z,5.26
2022-11-28T17:24:19.967Z,5.29
2022-11-28T17:26:21.285Z,5.26
2022-11-28T17:28:26.480Z,5.27
2022-11-28T17:30:24.095Z,5.25
2022-11-28T17:32:25.183Z,5.25
2022-11-28T17:34:26.890Z,5.27
2022-11-28T17:36:27.931Z,5.2
2022-11-28T17:38:29.233Z,5.17
2022-11-28T17:40:30.425Z,5.13
2022-11-28T17:42:32.135Z,5.06
2022-11-28T17:44:33.280Z,5.08
2022-11-28T17:46:34.628Z,5.08
2022-11-28T17:48:36.037Z,5.06
2022-11-28T17:50:37.513Z,5.08
2022-11-28T17:52:39.228Z,5.12
2022-11-28T17:54:41.198Z,5.09
2022-11-28T17:56:42.399Z,5.07
2022-11-28T17:58:44.414Z,5.1
2022-11-28T18:00:45.474Z,5.17
2022-11-28T18:02:46.664Z,5.2
2022-11-28T18:04:47.770Z,5.29
2022-11-28T18:06:49.152Z,5.26
2022-11-28T18:08:50.151Z,5.27
2022-11-28T18:12:53.670Z,5.29
2022-11-28T18:14:54.812Z,5.27
2022-11-28T18:16:56.546Z,5.23
2022-11-28T18:18:57.778Z,5.21
2022-11-28T18:20:59.431Z,5.19
2022-11-28T18:23:01.159Z,5.21
2022-11-28T18:25:02.487Z,5.22
2022-11-28T18:27:03.736Z,5.17
2022-11-28T18:29:05.384Z,5.18
2022-11-28T18:31:06.829Z,5.18
2022-11-28T18:33:08.238Z,5.19
2022-11-28T18:35:09.608Z,5.2
2022-11-28T18:37:10.848Z,5.18
2022-11-28T18:39:12.318Z,5.25
2022-11-28T18:41:22.245Z,5.26
2022-11-28T18:43:16.152Z,5.25
2022-11-28T18:45:18.004Z,5.3
2022-11-28T18:47:19.488Z,5.31
2022-11-28T18:49:20.690Z,5.31
2022-11-28T18:51:22.517Z,5.29
2022-11-28T18:53:23.598Z,5.32
2022-11-28T18:55:25.206Z,5.36
2022-11-28T18:57:26.366Z,5.37
2022-11-28T18:59:28.056Z,5.37
2022-11-28T19:01:29.349Z,5.39
2022-11-28T19:03:30.498Z,5.37
2022-11-28T19:05:36.465Z,5.35
2022-11-28T19:07:34.408Z,5.37
2022-11-28T19:09:44.438Z,5.43
2022-11-28T19:11:37.889Z,5.41
2022-11-28T19:13:39.829Z,5.4
2022-11-28T19:15:41.720Z,5.41
2022-11-28T19:17:43.379Z,5.42
2022-11-28T19:19:45.252Z,5.3
2022-11-28T19:21:46.241Z,5.28
2022-11-28T19:23:47.320Z,5.23
2022-11-28T19:25:48.589Z,5.31
2022-11-28T19:27:49.668Z,5.28
2022-11-28T19:29:50.965Z,5.3
2022-11-28T19:31:52.727Z,5.26
2022-11-28T19:33:57.516Z,5.28
2022-11-28T19:35:55.610Z,5.29
2022-11-28T19:37:57.260Z,5.26
2022-11-28T19:40:02.272Z,5.24
2022-11-28T19:41:59.721Z,5.26
2022-11-28T19:44:01.462Z,5.23
2022-11-28T19:46:03.332Z,5.25
2022-11-28T19:48:04.840Z,5.29
2022-11-28T19:50:05.923Z,5.34
2022-11-28T19:52:07.853Z,5.32
2022-11-28T19:54:09.253Z,5.29
2022-11-28T19:56:11.231Z,5.32
2022-11-28T19:58:13.081Z,5.42
2022-11-28T20:00:14.501Z,5.48
2022-11-28T20:03:00.255Z,5.46
2022-11-28T20:05:01.400Z,5.49
2022-11-28T20:07:03.265Z,5.54
2022-11-28T20:09:04.845Z,5.56
2022-11-28T20:11:06.422Z,5.54
2022-11-28T20:13:08.215Z,5.53
2022-11-28T20:15:13.830Z,5.56
2022-11-28T20:17:11.556Z,5.61
2022-11-28T20:19:12.587Z,5.6
2022-11-28T20:21:23.555Z,5.6
2022-11-28T20:23:15.955Z,5.61
2022-11-28T20:25:20.762Z,5.56
2022-11-28T20:27:19.271Z,5.58
2022-11-28T20:29:20.799Z,5.6
2022-11-28T20:31:22.776Z,5.6
2022-11-28T20:33:24.351Z,5.55
2022-11-28T20:35:25.386Z,5.51
2022-11-28T20:37:26.529Z,5.46
2022-11-28T20:39:28.115Z,5.49
2022-11-28T20:41:29.433Z,5.56
2022-11-28T20:43:30.448Z,5.6
2022-11-28T20:45:31.671Z,5.63
2022-11-28T20:47:33.626Z,5.62
2022-11-28T20:49:35.059Z,5.63
2022-11-28T20:51:36.888Z,5.54
2022-11-28T20:53:38.769Z,5.52
2022-11-28T20:55:40.251Z,5.47
2022-11-28T20:57:42.164Z,5.43
2022-11-28T20:59:44.187Z,5.37
2022-11-28T21:01:45.412Z,5.32
2022-11-28T21:03:46.551Z,5.3
2022-11-28T21:05:47.906Z,5.26
2022-11-28T21:07:49.611Z,5.26
2022-11-28T21:09:51.445Z,5.23
2022-11-28T21:11:57.829Z,5.2
2022-11-28T21:13:54.923Z,5.17
2022-11-28T21:15:56.773Z,5.22
2022-11-28T21:17:57.775Z,5.21
2022-11-28T21:19:59.075Z,5.27
2022-11-28T21:22:00.712Z,5.27
2022-11-28T21:24:02.563Z,5.24
2022-11-28T21:26:04.432Z,5.22
2022-11-28T21:28:05.521Z,5.17
2022-11-28T21:30:07.345Z,5.11
2022-11-28T21:32:09.259Z,5.12
2022-11-28T21:34:11.164Z,5.12
2022-11-28T21:36:13.266Z,5.15
2022-11-28T21:38:14.808Z,5.13
2022-11-28T21:40:16.724Z,5.16
2022-11-28T21:42:20.630Z,5.23
2022-11-28T21:44:19.584Z,5.1
2022-11-28T21:46:21.405Z,5.04
2022-11-28T21:48:22.868Z,5.04
2022-11-28T21:50:23.949Z,5.04
2022-11-28T21:52:25.576Z,5.06
2022-11-28T21:54:27.301Z,5.11
2022-11-28T21:56:28.823Z,5.09
2022-11-28T21:58:29.758Z,5.12
2022-11-28T22:00:51.959Z,5.11
2022-11-28T22:02:32.942Z,5.13
2022-11-28T22:04:34.370Z,5.01
2022-11-28T22:06:35.572Z,4.96
2022-11-28T22:08:37.242Z,4.99
2022-11-28T22:10:39.182Z,4.99
2022-11-28T22:12:40.883Z,4.98
2022-11-28T22:14:42.879Z,4.98
2022-11-28T22:16:44.307Z,5.05
2022-11-28T22:18:45.587Z,5.06
2022-11-28T22:20:50.282Z,5.06
2022-11-28T22:22:48.323Z,5.1
2022-11-28T22:24:49.834Z,5.07
2022-11-28T22:26:50.672Z,5.08
2022-11-28T22:28:53.509Z,5.12
2022-11-28T22:30:53.606Z,5.12
2022-11-28T22:32:55.000Z,5.15
2022-11-28T22:34:56.316Z,5.11
2022-11-28T22:36:57.858Z,5.11
2022-11-28T22:38:59.019Z,5.12
2022-11-28T22:41:00.906Z,5.11
2022-11-28T22:43:02.700Z,5.08
2022-11-28T22:45:03.907Z,5.09
2022-11-28T22:47:05.430Z,5.06
2022-11-28T22:49:06.827Z,5.08
2022-11-28T22:51:08.720Z,5.05
2022-11-28T22:53:10.553Z,5.04
2022-11-28T22:55:11.656Z,5.11
2022-11-28T22:57:13.282Z,5.12
2022-11-28T22:59:14.532Z,5.14
2022-11-28T23:01:15.923Z,5.2
2022-11-28T23:03:17.332Z,5.21
2022-11-28T23:05:18.249Z,5.25
2022-11-28T23:07:20.245Z,5.24
2022-11-28T23:09:21.634Z,5.25
2022-11-28T23:11:23.380Z,5.26
2022-11-28T23:13:25.190Z,5.23
2022-11-28T23:15:27.137Z,5.21
2022-11-28T23:17:28.355Z,5.17
2022-11-28T23:21:31.662Z,5.13
2022-11-28T23:23:33.089Z,5.09
2022-11-28T23:25:34.789Z,5.1
2022-11-28T23:27:36.272Z,5.13
2022-11-28T23:29:37.889Z,5.13
2022-11-28T23:31:39.410Z,5.13
2022-11-28T23:33:41.183Z,5.14
2022-11-28T23:35:42.524Z,5.11
2022-11-28T23:37:43.968Z,5.12
2022-11-28T23:39:45.469Z,5.1
2022-11-28T23:41:46.896Z,5.1
2022-11-28T23:43:48.263Z,5.07
2022-11-28T23:45:49.395Z,5.07
2022-11-28T23:47:50.377Z,5.06
2022-11-28T23:49:52.208Z,5.07
2022-11-28T23:51:53.822Z,5.04
2022-11-28T23:53:54.949Z,5.02
2022-11-28T23:55:56.129Z,5.01
2022-11-28T23:57:57.557Z,4.98
